Armington, Illinois
Current Conditions -  °F | °C
As of 6:15 AM on Monday 20 Oct 2014 (Local Time) from KAAA Reporting Station
Clear Clear  
Wind Chill: 51°   Ceiling: Unl
Heat Index: 51°   Visibility: 10mi
Dew Point: 47°   Wind: 3mph
Humidity: 86%   Direction: 230°SW
Pressure: 29.89"   Gusts: NA
Location:  40.34°N, 89.31°W
Report Text: KAAA 201115Z AUTO 23003KT 10SM CLR 11/09 A2989 RMK AO2 T01070085
Loading
Personal Weather Stations






























Interactive Weather Map
Tropical Storm Tracking
New forecast layout! Learn more

10-Day Weather Forecast

Advertisements
Track Severe Weather on mobile